sensor_id;sensor_type;location;lat;lon;timestamp;temperature;humidity
64888;DHT22;51386;53.082;8.816;2022-07-23T00:00:32;20.90;61.60
64888;DHT22;51386;53.082;8.816;2022-07-23T00:03:05;20.80;61.90
64888;DHT22;51386;53.082;8.816;2022-07-23T00:05:32;20.80;62.10
64888;DHT22;51386;53.082;8.816;2022-07-23T00:08:01;20.80;62.20
64888;DHT22;51386;53.082;8.816;2022-07-23T00:10:28;20.70;62.50
64888;DHT22;51386;53.082;8.816;2022-07-23T00:12:57;20.70;62.30
64888;DHT22;51386;53.082;8.816;2022-07-23T00:15:24;20.70;62.00
64888;DHT22;51386;53.082;8.816;2022-07-23T00:17:52;20.70;62.10
64888;DHT22;51386;53.082;8.816;2022-07-23T00:20:19;20.60;62.20
64888;DHT22;51386;53.082;8.816;2022-07-23T00:22:47;20.60;62.40
64888;DHT22;51386;53.082;8.816;2022-07-23T00:25:15;20.50;62.60
64888;DHT22;51386;53.082;8.816;2022-07-23T00:28:01;20.40;62.90
64888;DHT22;51386;53.082;8.816;2022-07-23T00:30:30;20.40;63.10
64888;DHT22;51386;53.082;8.816;2022-07-23T00:33:00;20.40;63.30
64888;DHT22;51386;53.082;8.816;2022-07-23T00:35:31;20.40;63.60
64888;DHT22;51386;53.082;8.816;2022-07-23T00:38:00;20.40;63.40
64888;DHT22;51386;53.082;8.816;2022-07-23T00:40:29;20.40;63.70
64888;DHT22;51386;53.082;8.816;2022-07-23T00:42:57;20.40;63.50
64888;DHT22;51386;53.082;8.816;2022-07-23T00:45:27;20.50;63.60
64888;DHT22;51386;53.082;8.816;2022-07-23T00:47:55;20.50;63.20
64888;DHT22;51386;53.082;8.816;2022-07-23T00:50:23;20.60;63.10
64888;DHT22;51386;53.082;8.816;2022-07-23T00:52:52;20.60;62.90
64888;DHT22;51386;53.082;8.816;2022-07-23T00:55:20;20.60;63.50
64888;DHT22;51386;53.082;8.816;2022-07-23T00:57:48;20.70;63.00
64888;DHT22;51386;53.082;8.816;2022-07-23T01:00:17;20.80;62.80
64888;DHT22;51386;53.082;8.816;2022-07-23T01:02:46;20.80;62.60
64888;DHT22;51386;53.082;8.816;2022-07-23T01:05:15;20.80;62.40
64888;DHT22;51386;53.082;8.816;2022-07-23T01:07:42;20.80;62.30
64888;DHT22;51386;53.082;8.816;2022-07-23T01:10:10;20.80;62.30
64888;DHT22;51386;53.082;8.816;2022-07-23T01:12:56;20.80;62.30
64888;DHT22;51386;53.082;8.816;2022-07-23T01:15:24;20.70;62.50
64888;DHT22;51386;53.082;8.816;2022-07-23T01:17:53;20.60;62.90
64888;DHT22;51386;53.082;8.816;2022-07-23T01:20:21;20.60;63.30
64888;DHT22;51386;53.082;8.816;2022-07-23T01:22:50;20.60;63.60
64888;DHT22;51386;53.082;8.816;2022-07-23T01:25:19;20.60;63.70
64888;DHT22;51386;53.082;8.816;2022-07-23T01:27:47;20.60;63.70
64888;DHT22;51386;53.082;8.816;2022-07-23T01:30:15;20.60;63.70
64888;DHT22;51386;53.082;8.816;2022-07-23T01:32:42;20.60;63.60
64888;DHT22;51386;53.082;8.816;2022-07-23T01:35:10;20.50;63.40
64888;DHT22;51386;53.082;8.816;2022-07-23T01:37:38;20.50;63.70
64888;DHT22;51386;53.082;8.816;2022-07-23T01:40:07;20.40;63.90
64888;DHT22;51386;53.082;8.816;2022-07-23T01:42:35;20.40;64.20
64888;DHT22;51386;53.082;8.816;2022-07-23T01:45:04;20.30;64.70
64888;DHT22;51386;53.082;8.816;2022-07-23T01:47:32;20.30;65.00
64888;DHT22;51386;53.082;8.816;2022-07-23T01:50:00;20.20;65.20
64888;DHT22;51386;53.082;8.816;2022-07-23T01:52:27;20.20;65.40
64888;DHT22;51386;53.082;8.816;2022-07-23T01:54:55;20.20;65.70
64888;DHT22;51386;53.082;8.816;2022-07-23T01:57:23;20.20;65.80
64888;DHT22;51386;53.082;8.816;2022-07-23T01:59:51;20.20;66.00
64888;DHT22;51386;53.082;8.816;2022-07-23T02:02:18;20.20;65.90
64888;DHT22;51386;53.082;8.816;2022-07-23T02:04:45;20.10;66.00
64888;DHT22;51386;53.082;8.816;2022-07-23T02:07:13;20.10;65.80
64888;DHT22;51386;53.082;8.816;2022-07-23T02:09:40;20.10;66.00
64888;DHT22;51386;53.082;8.816;2022-07-23T02:12:08;20.10;66.20
64888;DHT22;51386;53.082;8.816;2022-07-23T02:14:36;20.10;66.30
64888;DHT22;51386;53.082;8.816;2022-07-23T02:17:05;20.10;66.30
64888;DHT22;51386;53.082;8.816;2022-07-23T02:19:32;20.10;66.40
64888;DHT22;51386;53.082;8.816;2022-07-23T02:21:59;20.10;66.30
64888;DHT22;51386;53.082;8.816;2022-07-23T02:24:27;20.10;66.10
64888;DHT22;51386;53.082;8.816;2022-07-23T02:26:54;20.20;66.10
64888;DHT22;51386;53.082;8.816;2022-07-23T02:29:22;20.20;66.10
64888;DHT22;51386;53.082;8.816;2022-07-23T02:31:50;20.10;66.00
64888;DHT22;51386;53.082;8.816;2022-07-23T02:34:18;20.10;66.40
64888;DHT22;51386;53.082;8.816;2022-07-23T02:36:45;20.10;66.50
64888;DHT22;51386;53.082;8.816;2022-07-23T02:39:12;20.10;66.60
64888;DHT22;51386;53.082;8.816;2022-07-23T02:41:41;20.10;66.80
64888;DHT22;51386;53.082;8.816;2022-07-23T02:44:08;20.20;66.90
64888;DHT22;51386;53.082;8.816;2022-07-23T02:46:35;20.20;66.70
64888;DHT22;51386;53.082;8.816;2022-07-23T02:49:04;20.20;66.50
64888;DHT22;51386;53.082;8.816;2022-07-23T02:51:33;20.30;66.40
64888;DHT22;51386;53.082;8.816;2022-07-23T02:54:00;20.30;67.00
64888;DHT22;51386;53.082;8.816;2022-07-23T02:56:27;20.30;66.10
64888;DHT22;51386;53.082;8.816;2022-07-23T02:58:55;20.30;66.00
64888;DHT22;51386;53.082;8.816;2022-07-23T03:01:22;20.30;66.10
64888;DHT22;51386;53.082;8.816;2022-07-23T03:03:50;20.30;66.20
64888;DHT22;51386;53.082;8.816;2022-07-23T03:06:19;20.30;66.10
64888;DHT22;51386;53.082;8.816;2022-07-23T03:08:46;20.30;66.10
64888;DHT22;51386;53.082;8.816;2022-07-23T03:11:14;20.20;66.00
64888;DHT22;51386;53.082;8.816;2022-07-23T03:13:43;20.10;66.10
64888;DHT22;51386;53.082;8.816;2022-07-23T03:16:10;20.10;66.90
64888;DHT22;51386;53.082;8.816;2022-07-23T03:18:38;20.00;66.20
64888;DHT22;51386;53.082;8.816;2022-07-23T03:21:07;20.00;66.10
64888;DHT22;51386;53.082;8.816;2022-07-23T03:23:36;19.90;65.90
64888;DHT22;51386;53.082;8.816;2022-07-23T03:26:03;19.90;66.40
64888;DHT22;51386;53.082;8.816;2022-07-23T03:28:31;19.80;66.40
64888;DHT22;51386;53.082;8.816;2022-07-23T03:30:59;19.80;66.20
64888;DHT22;51386;53.082;8.816;2022-07-23T03:33:26;19.70;66.00
64888;DHT22;51386;53.082;8.816;2022-07-23T03:35:53;19.70;66.40
64888;DHT22;51386;53.082;8.816;2022-07-23T03:38:21;19.60;66.60
64888;DHT22;51386;53.082;8.816;2022-07-23T03:40:51;19.60;66.80
64888;DHT22;51386;53.082;8.816;2022-07-23T03:43:18;19.70;66.90
64888;DHT22;51386;53.082;8.816;2022-07-23T03:45:46;19.70;66.80
64888;DHT22;51386;53.082;8.816;2022-07-23T03:48:15;19.70;66.70
64888;DHT22;51386;53.082;8.816;2022-07-23T03:50:43;19.60;67.30
64888;DHT22;51386;53.082;8.816;2022-07-23T03:53:10;19.60;66.60
64888;DHT22;51386;53.082;8.816;2022-07-23T03:55:37;19.60;67.60
64888;DHT22;51386;53.082;8.816;2022-07-23T03:58:06;19.60;66.70
64888;DHT22;51386;53.082;8.816;2022-07-23T04:00:33;19.60;66.90
64888;DHT22;51386;53.082;8.816;2022-07-23T04:03:01;19.60;67.00
64888;DHT22;51386;53.082;8.816;2022-07-23T04:05:28;19.50;66.80
64888;DHT22;51386;53.082;8.816;2022-07-23T04:07:56;19.50;67.10
64888;DHT22;51386;53.082;8.816;2022-07-23T04:10:23;19.50;67.10
64888;DHT22;51386;53.082;8.816;2022-07-23T04:12:50;19.40;67.20
64888;DHT22;51386;53.082;8.816;2022-07-23T04:15:19;19.40;67.00
64888;DHT22;51386;53.082;8.816;2022-07-23T04:17:47;19.40;67.20
64888;DHT22;51386;53.082;8.816;2022-07-23T04:20:14;19.30;67.20
64888;DHT22;51386;53.082;8.816;2022-07-23T04:22:41;19.20;67.50
64888;DHT22;51386;53.082;8.816;2022-07-23T04:25:08;19.20;67.80
64888;DHT22;51386;53.082;8.816;2022-07-23T04:27:36;19.20;67.90
64888;DHT22;51386;53.082;8.816;2022-07-23T04:30:04;19.20;68.10
64888;DHT22;51386;53.082;8.816;2022-07-23T04:32:34;19.10;68.20
64888;DHT22;51386;53.082;8.816;2022-07-23T04:35:01;19.00;68.30
64888;DHT22;51386;53.082;8.816;2022-07-23T04:37:29;19.00;68.50
64888;DHT22;51386;53.082;8.816;2022-07-23T04:39:56;19.00;68.80
64888;DHT22;51386;53.082;8.816;2022-07-23T04:42:23;18.90;69.10
64888;DHT22;51386;53.082;8.816;2022-07-23T04:44:51;18.90;69.30
64888;DHT22;51386;53.082;8.816;2022-07-23T04:47:18;18.90;69.30
64888;DHT22;51386;53.082;8.816;2022-07-23T04:49:50;18.80;69.60
64888;DHT22;51386;53.082;8.816;2022-07-23T04:52:17;18.80;70.10
64888;DHT22;51386;53.082;8.816;2022-07-23T04:54:44;18.80;70.10
64888;DHT22;51386;53.082;8.816;2022-07-23T04:57:11;18.80;70.20
64888;DHT22;51386;53.082;8.816;2022-07-23T04:59:39;18.80;70.30
64888;DHT22;51386;53.082;8.816;2022-07-23T05:02:06;18.80;70.30
64888;DHT22;51386;53.082;8.816;2022-07-23T05:04:34;18.80;70.30
64888;DHT22;51386;53.082;8.816;2022-07-23T05:07:03;18.80;70.50
64888;DHT22;51386;53.082;8.816;2022-07-23T05:09:30;18.80;70.50
64888;DHT22;51386;53.082;8.816;2022-07-23T05:11:58;18.80;70.40
64888;DHT22;51386;53.082;8.816;2022-07-23T05:14:25;18.80;70.30
64888;DHT22;51386;53.082;8.816;2022-07-23T05:16:53;18.80;70.60
64888;DHT22;51386;53.082;8.816;2022-07-23T05:19:21;18.80;70.50
64888;DHT22;51386;53.082;8.816;2022-07-23T05:21:51;18.80;70.30
64888;DHT22;51386;53.082;8.816;2022-07-23T05:24:20;18.80;70.20
64888;DHT22;51386;53.082;8.816;2022-07-23T05:26:47;18.90;70.10
64888;DHT22;51386;53.082;8.816;2022-07-23T05:29:15;18.80;69.50
64888;DHT22;51386;53.082;8.816;2022-07-23T05:31:42;18.80;69.50
64888;DHT22;51386;53.082;8.816;2022-07-23T05:34:11;18.90;69.70
64888;DHT22;51386;53.082;8.816;2022-07-23T05:36:43;18.80;69.80
64888;DHT22;51386;53.082;8.816;2022-07-23T05:39:11;18.90;69.70
64888;DHT22;51386;53.082;8.816;2022-07-23T05:41:40;18.90;70.30
64888;DHT22;51386;53.082;8.816;2022-07-23T05:44:08;18.90;69.50
64888;DHT22;51386;53.082;8.816;2022-07-23T05:46:36;19.00;70.30
64888;DHT22;51386;53.082;8.816;2022-07-23T05:49:03;19.00;69.30
64888;DHT22;51386;53.082;8.816;2022-07-23T05:51:32;19.00;69.40
64888;DHT22;51386;53.082;8.816;2022-07-23T05:53:59;19.00;69.10
64888;DHT22;51386;53.082;8.816;2022-07-23T05:56:26;19.10;69.10
64888;DHT22;51386;53.082;8.816;2022-07-23T05:58:55;19.20;68.90
64888;DHT22;51386;53.082;8.816;2022-07-23T06:01:23;19.20;68.50
64888;DHT22;51386;53.082;8.816;2022-07-23T06:03:50;19.30;68.40
64888;DHT22;51386;53.082;8.816;2022-07-23T06:06:17;19.40;68.10
64888;DHT22;51386;53.082;8.816;2022-07-23T06:08:45;19.50;67.50
64888;DHT22;51386;53.082;8.816;2022-07-23T06:11:12;19.60;67.40
64888;DHT22;51386;53.082;8.816;2022-07-23T06:13:40;19.70;67.20
64888;DHT22;51386;53.082;8.816;2022-07-23T06:16:09;19.80;66.80
64888;DHT22;51386;53.082;8.816;2022-07-23T06:18:36;19.90;66.50
64888;DHT22;51386;53.082;8.816;2022-07-23T06:21:04;20.00;66.20
64888;DHT22;51386;53.082;8.816;2022-07-23T06:23:51;20.10;65.70
64888;DHT22;51386;53.082;8.816;2022-07-23T06:26:18;20.10;64.90
64888;DHT22;51386;53.082;8.816;2022-07-23T06:28:46;20.20;64.90
64888;DHT22;51386;53.082;8.816;2022-07-23T06:31:14;20.20;64.90
64888;DHT22;51386;53.082;8.816;2022-07-23T06:33:43;20.20;64.90
64888;DHT22;51386;53.082;8.816;2022-07-23T06:36:10;20.30;65.00
64888;DHT22;51386;53.082;8.816;2022-07-23T06:38:38;20.30;64.80
64888;DHT22;51386;53.082;8.816;2022-07-23T06:41:05;20.30;64.80
64888;DHT22;51386;53.082;8.816;2022-07-23T06:43:32;20.30;64.60
64888;DHT22;51386;53.082;8.816;2022-07-23T06:46:00;20.30;64.30
64888;DHT22;51386;53.082;8.816;2022-07-23T06:48:28;20.30;63.90
64888;DHT22;51386;53.082;8.816;2022-07-23T06:50:56;20.30;64.20
64888;DHT22;51386;53.082;8.816;2022-07-23T06:53:23;20.30;64.20
64888;DHT22;51386;53.082;8.816;2022-07-23T06:55:51;20.30;64.10
64888;DHT22;51386;53.082;8.816;2022-07-23T06:58:18;20.30;64.10
64888;DHT22;51386;53.082;8.816;2022-07-23T07:00:46;20.30;64.10
64888;DHT22;51386;53.082;8.816;2022-07-23T07:03:14;20.30;64.30
64888;DHT22;51386;53.082;8.816;2022-07-23T07:05:44;20.40;63.90
64888;DHT22;51386;53.082;8.816;2022-07-23T07:08:12;20.50;63.30
64888;DHT22;51386;53.082;8.816;2022-07-23T07:10:40;20.50;62.50
64888;DHT22;51386;53.082;8.816;2022-07-23T07:13:07;20.60;61.30
64888;DHT22;51386;53.082;8.816;2022-07-23T07:15:34;20.60;60.80
64888;DHT22;51386;53.082;8.816;2022-07-23T07:18:02;20.60;60.40
64888;DHT22;51386;53.082;8.816;2022-07-23T07:20:30;20.60;60.60
64888;DHT22;51386;53.082;8.816;2022-07-23T07:22:58;20.60;60.90
64888;DHT22;51386;53.082;8.816;2022-07-23T07:25:26;20.70;61.00
64888;DHT22;51386;53.082;8.816;2022-07-23T07:27:53;20.80;61.30
64888;DHT22;51386;53.082;8.816;2022-07-23T07:30:21;20.90;60.60
64888;DHT22;51386;53.082;8.816;2022-07-23T07:32:49;21.00;60.10
64888;DHT22;51386;53.082;8.816;2022-07-23T07:35:23;21.10;59.50
64888;DHT22;51386;53.082;8.816;2022-07-23T07:37:50;21.20;59.30
64888;DHT22;51386;53.082;8.816;2022-07-23T07:40:19;21.30;58.70
64888;DHT22;51386;53.082;8.816;2022-07-23T07:42:47;21.40;58.40
64888;DHT22;51386;53.082;8.816;2022-07-23T07:45:16;21.40;57.90
64888;DHT22;51386;53.082;8.816;2022-07-23T07:47:44;21.50;57.40
64888;DHT22;51386;53.082;8.816;2022-07-23T07:50:11;21.60;56.80
64888;DHT22;51386;53.082;8.816;2022-07-23T07:52:39;21.60;57.10
64888;DHT22;51386;53.082;8.816;2022-07-23T07:55:08;21.60;57.60
64888;DHT22;51386;53.082;8.816;2022-07-23T07:57:38;21.60;57.70
64888;DHT22;51386;53.082;8.816;2022-07-23T08:00:08;21.70;58.00
64888;DHT22;51386;53.082;8.816;2022-07-23T08:02:42;21.80;58.20
64888;DHT22;51386;53.082;8.816;2022-07-23T08:05:10;21.80;58.00
64888;DHT22;51386;53.082;8.816;2022-07-23T08:07:38;21.90;57.70
64888;DHT22;51386;53.082;8.816;2022-07-23T08:10:08;22.00;57.70
64888;DHT22;51386;53.082;8.816;2022-07-23T08:12:43;22.00;57.60
64888;DHT22;51386;53.082;8.816;2022-07-23T08:15:12;22.10;57.40
64888;DHT22;51386;53.082;8.816;2022-07-23T08:17:41;22.20;57.60
64888;DHT22;51386;53.082;8.816;2022-07-23T08:20:11;22.30;57.70
64888;DHT22;51386;53.082;8.816;2022-07-23T08:22:44;22.30;57.50
64888;DHT22;51386;53.082;8.816;2022-07-23T08:25:14;22.30;57.20
64888;DHT22;51386;53.082;8.816;2022-07-23T08:27:44;22.30;56.70
64888;DHT22;51386;53.082;8.816;2022-07-23T08:30:11;22.20;56.60
64888;DHT22;51386;53.082;8.816;2022-07-23T08:32:53;22.10;56.70
64888;DHT22;51386;53.082;8.816;2022-07-23T08:35:24;22.10;57.00
64888;DHT22;51386;53.082;8.816;2022-07-23T08:37:54;22.10;57.50
64888;DHT22;51386;53.082;8.816;2022-07-23T08:40:22;22.10;57.60
64888;DHT22;51386;53.082;8.816;2022-07-23T08:42:53;22.20;57.70
64888;DHT22;51386;53.082;8.816;2022-07-23T08:45:22;22.20;57.60
64888;DHT22;51386;53.082;8.816;2022-07-23T08:47:52;22.30;57.50
64888;DHT22;51386;53.082;8.816;2022-07-23T08:50:23;22.30;57.40
64888;DHT22;51386;53.082;8.816;2022-07-23T08:52:52;22.30;57.20
64888;DHT22;51386;53.082;8.816;2022-07-23T08:55:21;22.30;56.90
64888;DHT22;51386;53.082;8.816;2022-07-23T08:57:50;22.30;56.60
64888;DHT22;51386;53.082;8.816;2022-07-23T09:00:22;22.30;56.10
64888;DHT22;51386;53.082;8.816;2022-07-23T09:02:50;22.30;55.90
64888;DHT22;51386;53.082;8.816;2022-07-23T09:05:18;22.20;55.50
64888;DHT22;51386;53.082;8.816;2022-07-23T09:08:06;22.10;55.10
64888;DHT22;51386;53.082;8.816;2022-07-23T09:10:48;22.00;55.30
64888;DHT22;51386;53.082;8.816;2022-07-23T09:13:34;21.90;56.10
64888;DHT22;51386;53.082;8.816;2022-07-23T09:16:06;21.90;56.50
64888;DHT22;51386;53.082;8.816;2022-07-23T09:18:38;21.80;56.50
64888;DHT22;51386;53.082;8.816;2022-07-23T09:21:12;21.90;56.80
64888;DHT22;51386;53.082;8.816;2022-07-23T09:23:46;21.90;57.10
64888;DHT22;51386;53.082;8.816;2022-07-23T09:26:34;22.10;56.00
64888;DHT22;51386;53.082;8.816;2022-07-23T09:29:14;22.20;55.40
64888;DHT22;51386;53.082;8.816;2022-07-23T09:31:46;22.30;54.60
64888;DHT22;51386;53.082;8.816;2022-07-23T09:34:18;22.40;54.40
64888;DHT22;51386;53.082;8.816;2022-07-23T09:36:51;22.60;54.40
64888;DHT22;51386;53.082;8.816;2022-07-23T09:39:26;22.70;53.90
64888;DHT22;51386;53.082;8.816;2022-07-23T09:41:56;22.90;52.80
64888;DHT22;51386;53.082;8.816;2022-07-23T09:44:25;23.20;52.40
64888;DHT22;51386;53.082;8.816;2022-07-23T09:46:58;23.40;52.60
64888;DHT22;51386;53.082;8.816;2022-07-23T09:49:27;23.70;51.90
64888;DHT22;51386;53.082;8.816;2022-07-23T09:51:58;24.10;51.10
64888;DHT22;51386;53.082;8.816;2022-07-23T09:54:29;24.40;50.60
64888;DHT22;51386;53.082;8.816;2022-07-23T09:57:02;24.80;49.30
64888;DHT22;51386;53.082;8.816;2022-07-23T09:59:34;25.20;48.40
64888;DHT22;51386;53.082;8.816;2022-07-23T10:02:05;25.90;46.80
64888;DHT22;51386;53.082;8.816;2022-07-23T10:04:34;26.60;45.90
64888;DHT22;51386;53.082;8.816;2022-07-23T10:07:05;27.20;43.80
64888;DHT22;51386;53.082;8.816;2022-07-23T10:09:37;27.70;41.60
64888;DHT22;51386;53.082;8.816;2022-07-23T10:12:10;28.20;40.90
64888;DHT22;51386;53.082;8.816;2022-07-23T10:14:42;28.60;39.70
64888;DHT22;51386;53.082;8.816;2022-07-23T10:17:10;28.90;38.70
64888;DHT22;51386;53.082;8.816;2022-07-23T10:19:38;28.90;37.60
64888;DHT22;51386;53.082;8.816;2022-07-23T10:22:09;28.80;36.80
64888;DHT22;51386;53.082;8.816;2022-07-23T10:24:47;28.50;37.10
64888;DHT22;51386;53.082;8.816;2022-07-23T10:27:54;28.20;37.50
64888;DHT22;51386;53.082;8.816;2022-07-23T10:30:41;27.80;37.60
64888;DHT22;51386;53.082;8.816;2022-07-23T10:33:24;27.50;38.30
64888;DHT22;51386;53.082;8.816;2022-07-23T10:36:08;27.20;39.10
64888;DHT22;51386;53.082;8.816;2022-07-23T10:38:49;26.90;39.80
64888;DHT22;51386;53.082;8.816;2022-07-23T10:41:31;26.50;40.20
64888;DHT22;51386;53.082;8.816;2022-07-23T10:44:10;26.20;41.10
64888;DHT22;51386;53.082;8.816;2022-07-23T10:46:58;25.90;42.00
64888;DHT22;51386;53.082;8.816;2022-07-23T10:49:45;25.60;42.90
64888;DHT22;51386;53.082;8.816;2022-07-23T10:52:25;25.40;43.70
64888;DHT22;51386;53.082;8.816;2022-07-23T10:54:55;25.30;44.50
64888;DHT22;51386;53.082;8.816;2022-07-23T10:57:49;25.30;44.80
64888;DHT22;51386;53.082;8.816;2022-07-23T11:00:22;25.40;44.30
64888;DHT22;51386;53.082;8.816;2022-07-23T11:02:52;25.60;44.00
64888;DHT22;51386;53.082;8.816;2022-07-23T11:05:22;25.80;42.80
64888;DHT22;51386;53.082;8.816;2022-07-23T11:08:13;25.90;42.40
64888;DHT22;51386;53.082;8.816;2022-07-23T11:10:47;26.00;42.00
64888;DHT22;51386;53.082;8.816;2022-07-23T11:16:23;25.90;42.10
64888;DHT22;51386;53.082;8.816;2022-07-23T11:19:11;25.80;42.40
64888;DHT22;51386;53.082;8.816;2022-07-23T11:21:46;25.80;42.00
64888;DHT22;51386;53.082;8.816;2022-07-23T11:24:20;25.80;41.80
64888;DHT22;51386;53.082;8.816;2022-07-23T11:26:52;25.70;41.90
64888;DHT22;51386;53.082;8.816;2022-07-23T11:29:40;25.60;41.40
64888;DHT22;51386;53.082;8.816;2022-07-23T11:32:34;25.60;42.40
64888;DHT22;51386;53.082;8.816;2022-07-23T11:35:25;25.50;41.60
64888;DHT22;51386;53.082;8.816;2022-07-23T11:38:05;25.60;41.90
64888;DHT22;51386;53.082;8.816;2022-07-23T11:40:34;25.60;42.10
64888;DHT22;51386;53.082;8.816;2022-07-23T11:43:04;25.60;42.30
64888;DHT22;51386;53.082;8.816;2022-07-23T11:45:37;25.70;42.20
64888;DHT22;51386;53.082;8.816;2022-07-23T11:48:08;25.80;42.10
64888;DHT22;51386;53.082;8.816;2022-07-23T11:50:37;25.80;42.00
64888;DHT22;51386;53.082;8.816;2022-07-23T11:53:05;25.80;42.20
64888;DHT22;51386;53.082;8.816;2022-07-23T11:55:32;25.80;42.30
64888;DHT22;51386;53.082;8.816;2022-07-23T11:58:00;25.70;42.20
64888;DHT22;51386;53.082;8.816;2022-07-23T12:00:29;25.60;42.50
64888;DHT22;51386;53.082;8.816;2022-07-23T12:03:06;25.50;42.20
64888;DHT22;51386;53.082;8.816;2022-07-23T12:05:37;25.40;42.80
64888;DHT22;51386;53.082;8.816;2022-07-23T12:08:06;25.40;42.40
64888;DHT22;51386;53.082;8.816;2022-07-23T12:10:36;25.30;42.70
64888;DHT22;51386;53.082;8.816;2022-07-23T12:13:07;25.20;42.90
64888;DHT22;51386;53.082;8.816;2022-07-23T12:15:40;25.20;43.70
64888;DHT22;51386;53.082;8.816;2022-07-23T12:18:10;25.20;44.40
64888;DHT22;51386;53.082;8.816;2022-07-23T12:20:42;25.10;44.90
64888;DHT22;51386;53.082;8.816;2022-07-23T12:23:13;25.10;45.10
64888;DHT22;51386;53.082;8.816;2022-07-23T12:25:49;25.20;45.00
64888;DHT22;51386;53.082;8.816;2022-07-23T12:28:18;25.20;44.70
64888;DHT22;51386;53.082;8.816;2022-07-23T12:30:48;25.20;44.60
64888;DHT22;51386;53.082;8.816;2022-07-23T12:33:22;25.40;44.70
64888;DHT22;51386;53.082;8.816;2022-07-23T12:35:53;25.60;44.40
64888;DHT22;51386;53.082;8.816;2022-07-23T12:38:24;25.80;44.00
64888;DHT22;51386;53.082;8.816;2022-07-23T12:40:54;26.00;42.70
64888;DHT22;51386;53.082;8.816;2022-07-23T12:43:24;26.10;42.60
64888;DHT22;51386;53.082;8.816;2022-07-23T12:45:56;26.20;41.80
64888;DHT22;51386;53.082;8.816;2022-07-23T12:48:31;26.20;40.90
64888;DHT22;51386;53.082;8.816;2022-07-23T12:51:03;26.30;40.30
64888;DHT22;51386;53.082;8.816;2022-07-23T12:53:36;26.30;40.00
64888;DHT22;51386;53.082;8.816;2022-07-23T12:56:08;26.40;39.60
64888;DHT22;51386;53.082;8.816;2022-07-23T12:58:46;26.50;38.40
64888;DHT22;51386;53.082;8.816;2022-07-23T13:01:27;26.50;38.50
64888;DHT22;51386;53.082;8.816;2022-07-23T13:04:01;26.60;39.50
64888;DHT22;51386;53.082;8.816;2022-07-23T13:06:42;26.70;39.50
64888;DHT22;51386;53.082;8.816;2022-07-23T13:09:13;26.80;38.40
64888;DHT22;51386;53.082;8.816;2022-07-23T13:11:42;26.80;38.20
64888;DHT22;51386;53.082;8.816;2022-07-23T13:14:11;26.70;37.60
64888;DHT22;51386;53.082;8.816;2022-07-23T13:16:40;26.70;36.90
64888;DHT22;51386;53.082;8.816;2022-07-23T13:19:09;26.60;36.60
64888;DHT22;51386;53.082;8.816;2022-07-23T13:21:40;26.50;36.10
64888;DHT22;51386;53.082;8.816;2022-07-23T13:24:09;26.40;36.10
64888;DHT22;51386;53.082;8.816;2022-07-23T13:26:37;26.30;36.70
64888;DHT22;51386;53.082;8.816;2022-07-23T13:29:05;26.20;37.00
64888;DHT22;51386;53.082;8.816;2022-07-23T13:31:37;26.30;37.40
64888;DHT22;51386;53.082;8.816;2022-07-23T13:34:05;26.20;37.60
64888;DHT22;51386;53.082;8.816;2022-07-23T13:36:34;26.20;37.80
64888;DHT22;51386;53.082;8.816;2022-07-23T13:39:04;26.30;37.90
64888;DHT22;51386;53.082;8.816;2022-07-23T13:41:36;26.40;37.60
64888;DHT22;51386;53.082;8.816;2022-07-23T13:44:04;26.50;37.60
64888;DHT22;51386;53.082;8.816;2022-07-23T13:46:33;26.60;37.20
64888;DHT22;51386;53.082;8.816;2022-07-23T13:49:01;26.80;37.10
64888;DHT22;51386;53.082;8.816;2022-07-23T13:51:29;26.70;36.40
64888;DHT22;51386;53.082;8.816;2022-07-23T13:53:57;26.80;36.60
64888;DHT22;51386;53.082;8.816;2022-07-23T13:56:27;26.70;36.40
64888;DHT22;51386;53.082;8.816;2022-07-23T13:58:55;26.50;37.30
64888;DHT22;51386;53.082;8.816;2022-07-23T14:01:25;26.50;36.90
64888;DHT22;51386;53.082;8.816;2022-07-23T14:03:57;26.50;37.20
64888;DHT22;51386;53.082;8.816;2022-07-23T14:06:24;26.40;37.30
64888;DHT22;51386;53.082;8.816;2022-07-23T14:08:59;26.30;37.70
64888;DHT22;51386;53.082;8.816;2022-07-23T14:11:28;26.30;38.20
64888;DHT22;51386;53.082;8.816;2022-07-23T14:13:57;26.40;38.40
64888;DHT22;51386;53.082;8.816;2022-07-23T14:16:25;26.50;38.40
64888;DHT22;51386;53.082;8.816;2022-07-23T14:18:53;26.50;38.90
64888;DHT22;51386;53.082;8.816;2022-07-23T14:21:20;26.50;39.70
64888;DHT22;51386;53.082;8.816;2022-07-23T14:23:48;26.50;40.30
64888;DHT22;51386;53.082;8.816;2022-07-23T14:26:15;26.50;40.60
64888;DHT22;51386;53.082;8.816;2022-07-23T14:28:44;26.50;40.30
64888;DHT22;51386;53.082;8.816;2022-07-23T14:31:15;26.40;40.00
64888;DHT22;51386;53.082;8.816;2022-07-23T14:33:47;26.30;39.80
64888;DHT22;51386;53.082;8.816;2022-07-23T14:36:15;26.30;40.10
64888;DHT22;51386;53.082;8.816;2022-07-23T14:38:43;26.20;39.90
64888;DHT22;51386;53.082;8.816;2022-07-23T14:41:10;26.10;40.20
64888;DHT22;51386;53.082;8.816;2022-07-23T14:43:38;26.00;40.30
64888;DHT22;51386;53.082;8.816;2022-07-23T14:46:07;25.90;40.30
64888;DHT22;51386;53.082;8.816;2022-07-23T14:48:34;25.90;41.00
64888;DHT22;51386;53.082;8.816;2022-07-23T14:51:03;25.80;41.40
64888;DHT22;51386;53.082;8.816;2022-07-23T14:53:31;25.80;42.00
64888;DHT22;51386;53.082;8.816;2022-07-23T14:55:58;25.80;42.20
64888;DHT22;51386;53.082;8.816;2022-07-23T14:58:26;25.70;42.70
64888;DHT22;51386;53.082;8.816;2022-07-23T15:00:53;25.80;43.00
64888;DHT22;51386;53.082;8.816;2022-07-23T15:03:22;25.80;43.20
64888;DHT22;51386;53.082;8.816;2022-07-23T15:06:06;25.80;43.20
64888;DHT22;51386;53.082;8.816;2022-07-23T15:08:34;25.80;42.80
64888;DHT22;51386;53.082;8.816;2022-07-23T15:11:02;25.90;42.90
64888;DHT22;51386;53.082;8.816;2022-07-23T15:13:29;26.00;43.00
64888;DHT22;51386;53.082;8.816;2022-07-23T15:15:57;26.20;42.60
64888;DHT22;51386;53.082;8.816;2022-07-23T15:18:30;26.40;41.60
64888;DHT22;51386;53.082;8.816;2022-07-23T15:20:58;26.50;39.70
64888;DHT22;51386;53.082;8.816;2022-07-23T15:23:26;26.70;40.00
64888;DHT22;51386;53.082;8.816;2022-07-23T15:25:54;26.90;38.90
64888;DHT22;51386;53.082;8.816;2022-07-23T15:28:22;27.10;38.60
64888;DHT22;51386;53.082;8.816;2022-07-23T15:30:50;27.20;38.40
64888;DHT22;51386;53.082;8.816;2022-07-23T15:33:20;27.20;39.10
64888;DHT22;51386;53.082;8.816;2022-07-23T15:35:49;27.30;38.50
64888;DHT22;51386;53.082;8.816;2022-07-23T15:38:19;27.30;37.60
64888;DHT22;51386;53.082;8.816;2022-07-23T15:40:52;27.20;37.70
64888;DHT22;51386;53.082;8.816;2022-07-23T15:43:20;27.20;38.50
64888;DHT22;51386;53.082;8.816;2022-07-23T15:45:47;27.20;39.00
64888;DHT22;51386;53.082;8.816;2022-07-23T15:48:18;27.00;36.70
64888;DHT22;51386;53.082;8.816;2022-07-23T15:50:48;27.00;37.20